createdAt,value
2023-04-05T00:01:03.903Z,4.82
2023-04-05T00:03:30.536Z,5.45
2023-04-05T00:05:57.151Z,5.55
2023-04-05T00:08:23.700Z,5.00
2023-04-05T00:10:50.797Z,5.05
2023-04-05T00:13:17.284Z,5.07
2023-04-05T00:15:43.854Z,5.13
2023-04-05T00:18:10.542Z,4.78
2023-04-05T00:20:37.019Z,5.68
2023-04-05T00:23:03.533Z,4.15
2023-04-05T00:25:30.019Z,4.70
2023-04-05T00:27:56.522Z,3.92
2023-04-05T00:30:23.020Z,4.47
2023-04-05T00:32:50.343Z,3.83
2023-04-05T00:35:17.124Z,4.53
2023-04-05T00:37:43.637Z,4.90
2023-04-05T00:40:10.362Z,5.05
2023-04-05T00:42:36.848Z,4.72
2023-04-05T00:45:03.536Z,4.57
2023-04-05T00:47:30.113Z,5.15
2023-04-05T00:49:57.197Z,4.50
2023-04-05T00:52:23.908Z,5.70
2023-04-05T00:54:51.529Z,3.72
2023-04-05T00:57:18.156Z,4.05
2023-04-05T00:59:44.631Z,4.22
2023-04-05T01:02:28.715Z,3.92
2023-04-05T01:05:08.702Z,3.88
2023-04-05T01:07:46.132Z,4.30
2023-04-05T01:10:16.286Z,4.75
2023-04-05T01:12:44.216Z,3.80
2023-04-05T01:15:11.592Z,5.20
2023-04-05T01:17:38.118Z,4.68
2023-04-05T01:20:07.792Z,4.53
2023-04-05T01:23:11.923Z,4.70
2023-04-05T01:26:05.955Z,4.00
2023-04-05T01:28:53.549Z,4.57
2023-04-05T01:31:47.353Z,4.00
2023-04-05T01:34:25.831Z,4.00
2023-04-05T01:37:05.960Z,4.18
2023-04-05T01:39:35.639Z,4.20
2023-04-05T01:42:03.447Z,5.30
2023-04-05T01:44:30.050Z,4.75
2023-04-05T01:46:56.734Z,4.30
2023-04-05T01:49:24.139Z,5.35
2023-04-05T01:51:50.802Z,4.35
2023-04-05T01:54:17.456Z,4.55
2023-04-05T01:56:43.932Z,4.43
2023-04-05T01:59:10.425Z,5.25
2023-04-05T02:01:36.999Z,5.32
2023-04-05T02:04:03.529Z,4.60
2023-04-05T02:06:29.991Z,4.72
2023-04-05T02:08:56.500Z,5.43
2023-04-05T02:11:23.129Z,4.53
2023-04-05T02:13:49.651Z,5.07
2023-04-05T02:16:16.252Z,5.15
2023-04-05T02:18:42.918Z,5.43
2023-04-05T02:21:09.597Z,5.15
2023-04-05T02:23:38.578Z,5.47
2023-04-05T02:26:05.135Z,5.47
2023-04-05T02:28:31.606Z,5.43
2023-04-05T02:30:58.106Z,6.55
2023-04-05T02:33:24.587Z,5.65
2023-04-05T02:35:52.412Z,5.05
2023-04-05T02:38:18.986Z,5.88
2023-04-05T02:40:51.519Z,4.65
2023-04-05T02:43:18.049Z,5.38
2023-04-05T02:45:46.353Z,5.28
2023-04-05T02:48:13.578Z,5.93
2023-04-05T02:50:40.304Z,6.63
2023-04-05T02:53:06.925Z,5.88
2023-04-05T02:55:33.478Z,6.38
2023-04-05T02:58:00.702Z,5.53
2023-04-05T03:00:27.483Z,6.75
2023-04-05T03:02:54.043Z,5.93
2023-04-05T03:05:20.538Z,5.78
2023-04-05T03:07:47.064Z,6.18
2023-04-05T03:10:14.270Z,6.28
2023-04-05T03:12:40.743Z,6.43
2023-04-05T03:15:08.013Z,5.45
2023-04-05T03:17:34.539Z,6.30
2023-04-05T03:20:01.027Z,6.03
2023-04-05T03:22:27.523Z,5.30
2023-04-05T03:24:54.057Z,5.80
2023-04-05T03:27:20.635Z,6.53
2023-04-05T03:29:47.205Z,5.72
2023-04-05T03:32:13.692Z,7.18
2023-04-05T03:34:40.243Z,5.97
2023-04-05T03:37:06.724Z,6.50
2023-04-05T03:39:33.210Z,7.47
2023-04-05T03:41:59.687Z,6.10
2023-04-05T03:44:26.147Z,6.88
2023-04-05T03:46:52.785Z,6.45
2023-04-05T03:49:19.425Z,6.88
2023-04-05T03:51:46.079Z,6.72
2023-04-05T03:54:12.668Z,6.93
2023-04-05T03:56:39.197Z,6.35
2023-04-05T03:59:05.785Z,6.55
2023-04-05T04:01:32.327Z,6.50
2023-04-05T04:03:58.827Z,6.50
2023-04-05T04:06:26.312Z,5.50
2023-04-05T04:08:52.928Z,6.55
2023-04-05T04:11:19.434Z,6.07
2023-04-05T04:13:45.889Z,6.70
2023-04-05T04:16:12.471Z,6.07
2023-04-05T04:18:38.971Z,6.40
2023-04-05T04:21:05.520Z,5.63
2023-04-05T04:23:34.991Z,5.82
2023-04-05T04:26:01.497Z,6.25
2023-04-05T04:28:29.434Z,5.88
2023-04-05T04:30:55.946Z,5.80
2023-04-05T04:33:22.482Z,5.63
2023-04-05T04:35:49.049Z,6.00
2023-04-05T04:38:16.211Z,6.40
2023-04-05T04:40:42.722Z,5.28
2023-04-05T04:43:11.318Z,5.43
2023-04-05T04:45:38.133Z,5.47
2023-04-05T04:48:05.209Z,6.00
2023-04-05T04:50:32.485Z,5.95
2023-04-05T04:52:59.571Z,5.35
2023-04-05T04:55:26.106Z,6.30
2023-04-05T04:57:53.414Z,5.32
2023-04-05T05:00:20.989Z,5.13
2023-04-05T05:02:48.094Z,5.80
2023-04-05T05:05:14.701Z,6.28
2023-04-05T05:07:41.668Z,6.03
2023-04-05T05:10:09.716Z,6.22
2023-04-05T05:12:36.986Z,7.05
2023-04-05T05:15:03.788Z,5.78
2023-04-05T05:17:30.298Z,6.15
2023-04-05T05:19:56.795Z,6.15
2023-04-05T05:22:23.263Z,6.40
2023-04-05T05:24:49.715Z,5.00
2023-04-05T05:27:16.252Z,5.57
2023-04-05T05:29:42.763Z,5.22
2023-04-05T05:32:09.527Z,6.90
2023-04-05T05:34:36.056Z,5.95
2023-04-05T05:37:02.555Z,6.13
2023-04-05T05:39:29.045Z,4.85
2023-04-05T05:41:55.577Z,5.13
2023-04-05T05:44:22.078Z,5.93
2023-04-05T05:46:48.693Z,6.03
2023-04-05T05:49:16.416Z,5.40
2023-04-05T05:51:42.906Z,6.15
2023-04-05T05:54:09.387Z,5.80
2023-04-05T05:56:35.850Z,6.65
2023-04-05T05:59:02.424Z,6.72
2023-04-05T06:01:28.972Z,6.05
2023-04-05T06:03:55.932Z,5.57
2023-04-05T06:06:22.943Z,6.22
2023-04-05T06:08:49.522Z,5.88
2023-04-05T06:11:20.086Z,6.10
2023-04-05T06:13:46.561Z,6.22
2023-04-05T06:16:13.054Z,6.03
2023-04-05T06:18:39.593Z,5.78
2023-04-05T06:21:06.132Z,5.43
2023-04-05T06:23:32.677Z,5.68
2023-04-05T06:25:59.213Z,6.70
2023-04-05T06:28:25.716Z,6.95
2023-04-05T06:30:52.265Z,7.35
2023-04-05T06:33:19.002Z,5.93
2023-04-05T06:35:46.737Z,5.43
2023-04-05T06:38:13.268Z,7.07
2023-04-05T06:40:39.947Z,6.20
2023-04-05T06:43:06.598Z,6.68
2023-04-05T06:45:33.236Z,6.55
2023-04-05T06:47:59.826Z,6.38
2023-04-05T06:50:26.416Z,6.68
2023-04-05T06:52:52.934Z,7.60
2023-04-05T06:55:19.428Z,6.20
2023-04-05T06:57:45.931Z,7.70
2023-04-05T07:00:13.332Z,7.82
2023-04-05T07:02:40.200Z,7.68
2023-04-05T07:05:06.961Z,7.60
2023-04-05T07:07:33.512Z,7.95
2023-04-05T07:10:00.049Z,6.55
2023-04-05T07:12:26.599Z,7.50
2023-04-05T07:14:53.075Z,8.45
2023-04-05T07:17:19.602Z,7.53
2023-04-05T07:19:46.070Z,7.22
2023-04-05T07:22:12.540Z,6.75
2023-04-05T07:24:39.306Z,6.65
2023-04-05T07:27:05.830Z,7.20
2023-04-05T07:29:32.344Z,7.88
2023-04-05T07:31:58.893Z,7.18
2023-04-05T07:34:25.506Z,6.00
2023-04-05T07:36:52.045Z,7.38
2023-04-05T07:39:18.554Z,7.35
2023-04-05T07:41:45.136Z,8.00
2023-04-05T07:44:11.612Z,7.07
2023-04-05T07:46:38.181Z,7.65
2023-04-05T07:49:04.768Z,7.32
2023-04-05T07:51:31.320Z,7.75
2023-04-05T07:53:57.831Z,7.03
2023-04-05T07:56:24.359Z,7.40
2023-04-05T07:58:51.649Z,8.57
2023-04-05T08:01:18.216Z,7.30
2023-04-05T08:03:44.810Z,5.93
2023-04-05T08:06:13.193Z,6.18
2023-04-05T08:08:40.637Z,6.28
2023-04-05T08:11:07.666Z,6.60
2023-04-05T08:13:34.193Z,6.25
2023-04-05T08:16:01.277Z,6.07
2023-04-05T08:18:28.131Z,5.50
2023-04-05T08:20:55.342Z,6.07
2023-04-05T08:23:21.998Z,6.35
2023-04-05T08:25:48.478Z,6.45
2023-04-05T08:28:15.060Z,6.85
2023-04-05T08:30:41.847Z,6.15
2023-04-05T08:33:08.929Z,6.43
2023-04-05T08:35:37.003Z,6.45
2023-04-05T08:38:04.198Z,6.65
2023-04-05T08:40:37.373Z,6.18
2023-04-05T08:43:12.842Z,5.97
2023-04-05T08:45:48.621Z,6.45
2023-04-05T08:48:15.943Z,5.75
2023-04-05T08:50:42.835Z,6.43
2023-04-05T08:53:09.540Z,6.70
2023-04-05T08:55:37.911Z,6.45
2023-04-05T08:58:12.493Z,7.05
2023-04-05T09:00:40.865Z,7.05
2023-04-05T09:03:12.877Z,7.60
2023-04-05T09:05:41.019Z,7.82
2023-04-05T09:08:07.570Z,7.15
2023-04-05T09:10:34.350Z,7.68
2023-04-05T09:13:00.814Z,7.45
2023-04-05T09:15:27.727Z,7.43
2023-04-05T09:17:55.817Z,7.78
2023-04-05T09:20:22.632Z,8.18
2023-04-05T09:22:49.334Z,7.85
2023-04-05T09:25:36.547Z,7.75
2023-04-05T09:28:03.040Z,8.93
2023-04-05T09:30:29.818Z,9.13
2023-04-05T09:32:57.150Z,8.50
2023-04-05T09:35:29.782Z,7.88
2023-04-05T09:38:00.335Z,7.72
2023-04-05T09:40:47.679Z,6.93
2023-04-05T09:43:40.952Z,8.60
2023-04-05T09:46:16.483Z,7.53
2023-04-05T09:48:50.131Z,7.93
2023-04-05T09:51:17.623Z,7.40
2023-04-05T09:54:04.510Z,7.63
2023-04-05T09:59:17.251Z,7.05
2023-04-05T10:01:44.754Z,6.60
2023-04-05T10:04:11.370Z,7.03
2023-04-05T10:06:41.250Z,7.55
2023-04-05T10:09:09.349Z,7.03
2023-04-05T10:11:37.320Z,6.85
2023-04-05T10:14:05.651Z,6.82
2023-04-05T10:16:45.335Z,7.28
2023-04-05T10:19:32.014Z,7.00
2023-04-05T10:22:02.081Z,6.95
2023-04-05T10:24:49.554Z,6.78
2023-04-05T10:27:30.658Z,6.82
2023-04-05T10:32:54.638Z,7.05
2023-04-05T10:35:42.267Z,5.70
2023-04-05T10:38:29.160Z,6.07
2023-04-05T10:41:05.797Z,6.65
2023-04-05T10:43:35.061Z,7.20
2023-04-05T10:46:03.456Z,6.63
2023-04-05T10:48:33.001Z,5.82
2023-04-05T10:51:01.206Z,5.50
2023-04-05T10:53:28.433Z,5.70
2023-04-05T10:55:57.566Z,5.10
2023-04-05T10:58:26.413Z,5.47
2023-04-05T11:00:56.218Z,5.35
2023-04-05T11:03:44.486Z,5.35
2023-04-05T11:06:29.189Z,5.38
2023-04-05T11:09:21.139Z,5.40
2023-04-05T11:11:49.574Z,5.10
2023-04-05T11:14:21.612Z,5.78
2023-04-05T11:16:50.409Z,5.43
2023-04-05T11:19:17.654Z,6.05
2023-04-05T11:21:44.226Z,5.30
2023-04-05T11:24:14.678Z,5.47
2023-04-05T11:26:44.175Z,6.38
2023-04-05T11:31:57.947Z,5.30
2023-04-05T11:34:25.246Z,5.47
2023-04-05T11:36:52.056Z,4.38
2023-04-05T11:39:18.603Z,5.32
2023-04-05T11:41:46.833Z,5.13
2023-04-05T11:44:16.925Z,4.93
2023-04-05T11:46:43.608Z,4.95
2023-04-05T11:49:10.250Z,4.95
2023-04-05T11:51:37.227Z,5.30
2023-04-05T11:54:03.761Z,4.60
2023-04-05T11:56:30.380Z,5.55
2023-04-05T11:59:00.384Z,5.38
2023-04-05T12:01:26.997Z,5.55
2023-04-05T12:03:54.733Z,5.15
2023-04-05T12:06:26.055Z,5.70
2023-04-05T12:08:53.153Z,5.45
2023-04-05T12:11:27.371Z,5.35
2023-04-05T12:13:55.938Z,5.03
2023-04-05T12:16:22.510Z,4.95
2023-04-05T12:18:56.330Z,6.00
2023-04-05T12:21:24.030Z,4.93
2023-04-05T12:23:51.200Z,5.93
2023-04-05T12:26:18.280Z,6.32
2023-04-05T12:28:55.746Z,7.97
2023-04-05T12:31:40.992Z,8.00
2023-04-05T12:34:09.032Z,5.40
2023-04-05T12:36:35.935Z,5.75
2023-04-05T12:39:08.285Z,5.60
2023-04-05T12:41:35.202Z,5.28
2023-04-05T12:44:28.665Z,5.35
2023-04-05T12:47:03.070Z,6.28
2023-04-05T12:49:29.730Z,5.80
2023-04-05T12:52:01.557Z,5.78
2023-04-05T12:54:28.115Z,5.82
2023-04-05T12:56:55.416Z,5.55
2023-04-05T12:59:23.127Z,12.55
2023-04-05T13:01:49.990Z,6.32
2023-04-05T13:04:18.749Z,5.70
2023-04-05T13:06:45.579Z,6.50
2023-04-05T13:09:12.067Z,5.85
2023-04-05T13:11:38.622Z,5.82
2023-04-05T13:14:05.130Z,6.22
2023-04-05T13:16:31.645Z,6.70
2023-04-05T13:18:58.179Z,5.60
2023-04-05T13:21:24.827Z,5.75
2023-04-05T13:23:51.318Z,6.25
2023-04-05T13:26:17.814Z,6.05
2023-04-05T13:28:44.333Z,6.72
2023-04-05T13:31:12.006Z,6.90
2023-04-05T13:33:39.559Z,5.68
2023-04-05T13:36:06.460Z,6.13
2023-04-05T13:38:33.025Z,6.32
2023-04-05T13:40:59.556Z,6.93
2023-04-05T13:43:26.031Z,6.18
2023-04-05T13:45:52.556Z,7.30
2023-04-05T13:48:19.081Z,6.50
2023-04-05T13:50:45.609Z,6.28
2023-04-05T13:53:12.176Z,6.65
2023-04-05T13:55:38.706Z,6.25
2023-04-05T13:58:05.174Z,5.85
2023-04-05T14:00:32.067Z,7.13
2023-04-05T14:02:58.689Z,7.00
2023-04-05T14:05:25.263Z,6.97
2023-04-05T14:07:51.747Z,6.32
2023-04-05T14:10:18.353Z,6.93
2023-04-05T14:12:44.859Z,6.35
2023-04-05T14:15:11.695Z,7.07
2023-04-05T14:17:38.235Z,6.13
2023-04-05T14:20:05.307Z,6.95
2023-04-05T14:22:31.811Z,6.65
2023-04-05T14:24:58.409Z,7.15
2023-04-05T14:27:25.022Z,6.72
2023-04-05T14:29:51.517Z,6.00
2023-04-05T14:32:18.070Z,6.85
2023-04-05T14:34:44.585Z,6.68
2023-04-05T14:37:11.123Z,6.30
2023-04-05T14:39:37.649Z,6.57
2023-04-05T14:42:04.260Z,6.70
2023-04-05T14:44:30.801Z,7.32
2023-04-05T14:46:57.512Z,6.85
2023-04-05T14:49:24.112Z,6.25
2023-04-05T14:51:50.640Z,7.05
2023-04-05T14:54:17.216Z,6.53
2023-04-05T14:56:43.747Z,6.30
2023-04-05T14:59:10.410Z,6.07
2023-04-05T15:01:37.087Z,6.57
2023-04-05T15:04:04.097Z,7.22
2023-04-05T15:06:30.625Z,7.20
2023-04-05T15:08:57.166Z,5.95
2023-04-05T15:11:23.803Z,6.40
2023-04-05T15:13:50.332Z,6.90
2023-04-05T15:16:16.916Z,6.93
2023-04-05T15:18:43.482Z,6.30
2023-04-05T15:21:10.261Z,7.47
2023-04-05T15:23:36.853Z,6.53
2023-04-05T15:26:03.378Z,6.90
2023-04-05T15:28:29.901Z,7.10
2023-04-05T15:30:56.534Z,6.93
2023-04-05T15:33:23.043Z,6.47
2023-04-05T15:35:49.669Z,6.78
2023-04-05T15:38:16.277Z,7.22
2023-04-05T15:40:46.441Z,6.70
2023-04-05T15:43:13.022Z,6.60
2023-04-05T15:45:39.537Z,6.30
2023-04-05T15:48:06.147Z,8.07
2023-04-05T15:50:32.755Z,7.03
2023-04-05T15:52:59.340Z,7.15
2023-04-05T15:55:25.883Z,6.53
2023-04-05T15:57:52.376Z,6.70
2023-04-05T16:00:19.587Z,6.85
2023-04-05T16:02:46.259Z,6.75
2023-04-05T16:05:12.981Z,6.50
2023-04-05T16:07:39.623Z,7.70
2023-04-05T16:10:06.758Z,6.45
2023-04-05T16:12:33.311Z,7.60
2023-04-05T16:14:59.879Z,7.57
2023-04-05T16:17:26.541Z,7.00
2023-04-05T16:19:54.647Z,6.72
2023-04-05T16:22:23.113Z,7.80
2023-04-05T16:24:49.626Z,7.28
2023-04-05T16:27:16.256Z,6.72
2023-04-05T16:29:42.768Z,6.95
2023-04-05T16:32:09.423Z,6.72
2023-04-05T16:34:36.067Z,6.90
2023-04-05T16:37:02.591Z,7.97
2023-04-05T16:39:29.103Z,7.07
2023-04-05T16:41:55.644Z,7.25
2023-04-05T16:44:22.198Z,6.78
2023-04-05T16:46:49.822Z,7.25
2023-04-05T16:49:16.391Z,7.22
2023-04-05T16:51:43.009Z,8.02
2023-04-05T16:54:10.653Z,7.78
2023-04-05T16:56:37.184Z,8.40
2023-04-05T16:59:05.767Z,7.88
2023-04-05T17:04:00.202Z,6.88
2023-04-05T17:06:30.833Z,7.63
2023-04-05T17:08:57.522Z,7.53
2023-04-05T17:11:24.150Z,7.35
2023-04-05T17:13:50.752Z,7.00
2023-04-05T17:16:17.448Z,7.35
2023-04-05T17:18:44.038Z,7.28
2023-04-05T17:21:10.820Z,6.57
2023-04-05T17:23:37.372Z,7.13
2023-04-05T17:26:04.068Z,6.70
2023-04-05T17:28:30.613Z,6.50
2023-04-05T17:30:57.230Z,6.53
2023-04-05T17:33:23.790Z,6.07
2023-04-05T17:35:50.378Z,6.70
2023-04-05T17:38:17.067Z,7.32
2023-04-05T17:40:43.732Z,6.63
2023-04-05T17:43:10.289Z,7.05
2023-04-05T17:45:37.116Z,7.47
2023-04-05T17:48:03.749Z,7.13
2023-04-05T17:50:30.468Z,6.75
2023-04-05T17:52:56.984Z,7.85
2023-04-05T17:55:24.134Z,7.25
2023-04-05T17:57:50.706Z,7.00
2023-04-05T18:00:17.735Z,7.05
2023-04-05T18:02:45.595Z,6.40
2023-04-05T18:05:12.605Z,6.70
2023-04-05T18:07:39.190Z,7.07
2023-04-05T18:10:06.403Z,8.18
2023-04-05T18:12:33.686Z,6.63
2023-04-05T18:15:00.527Z,7.55
2023-04-05T18:17:27.111Z,7.25
2023-04-05T18:19:54.755Z,6.93
2023-04-05T18:22:21.395Z,7.22
2023-04-05T18:24:47.913Z,7.10
2023-04-05T18:27:14.555Z,6.50
2023-04-05T18:29:41.171Z,7.10
2023-04-05T18:32:07.881Z,7.20
2023-04-05T18:34:34.838Z,8.05
2023-04-05T18:37:02.024Z,6.68
2023-04-05T18:39:28.569Z,7.78
2023-04-05T18:41:55.122Z,7.45
2023-04-05T18:44:21.739Z,7.25
2023-04-05T18:46:48.296Z,8.00
2023-04-05T18:49:14.999Z,7.57
2023-04-05T18:51:41.706Z,7.38
2023-04-05T18:54:08.253Z,6.82
2023-04-05T18:56:34.816Z,7.15
2023-04-05T18:59:01.386Z,7.75
2023-04-05T19:01:27.992Z,7.90
2023-04-05T19:03:54.569Z,7.70
2023-04-05T19:06:21.114Z,7.78
2023-04-05T19:08:47.717Z,7.75
2023-04-05T19:11:14.343Z,6.97
2023-04-05T19:13:41.488Z,7.32
2023-04-05T19:16:08.257Z,7.45
2023-04-05T19:18:34.976Z,8.57
2023-04-05T19:21:01.540Z,7.50
2023-04-05T19:23:28.766Z,7.93
2023-04-05T19:25:56.138Z,7.47
2023-04-05T19:28:23.418Z,7.68
2023-04-05T19:30:50.131Z,7.20
2023-04-05T19:33:17.286Z,7.55
2023-04-05T19:35:45.340Z,8.48
2023-04-05T19:38:12.008Z,7.13
2023-04-05T19:40:38.759Z,7.40
2023-04-05T19:43:05.310Z,8.00
2023-04-05T19:45:32.261Z,7.20
2023-04-05T19:48:01.275Z,7.72
2023-04-05T19:50:51.839Z,7.30
2023-04-05T19:53:46.691Z,7.53
2023-04-05T19:56:21.876Z,6.90
2023-04-05T19:59:37.780Z,7.55
2023-04-05T20:02:18.810Z,7.38
2023-04-05T20:04:45.326Z,7.20
2023-04-05T20:07:12.732Z,7.53
2023-04-05T20:09:39.467Z,8.02
2023-04-05T20:12:06.266Z,8.18
2023-04-05T20:14:44.080Z,7.55
2023-04-05T20:17:12.610Z,7.10
2023-04-05T20:19:40.748Z,8.15
2023-04-05T20:22:08.984Z,8.27
2023-04-05T20:24:38.428Z,8.90
2023-04-05T20:27:05.121Z,8.30
2023-04-05T20:29:33.815Z,9.48
2023-04-05T20:32:01.479Z,8.95
2023-04-05T20:34:33.057Z,10.75
2023-04-05T20:37:07.419Z,8.02
2023-04-05T20:39:34.381Z,8.50
2023-04-05T20:42:01.080Z,8.43
2023-04-05T20:44:27.653Z,8.48
2023-04-05T20:46:55.614Z,8.93
2023-04-05T20:49:22.884Z,8.30
2023-04-05T20:51:50.027Z,8.05
2023-04-05T20:54:17.254Z,7.50
2023-04-05T20:56:43.759Z,7.75
2023-04-05T20:59:10.827Z,6.68
2023-04-05T21:01:37.545Z,7.40
2023-04-05T21:04:04.990Z,7.20
2023-04-05T21:06:31.673Z,6.28
2023-04-05T21:08:58.263Z,7.88
2023-04-05T21:11:24.790Z,6.85
2023-04-05T21:13:51.281Z,8.25
2023-04-05T21:16:18.202Z,8.40
2023-04-05T21:18:44.836Z,8.40
2023-04-05T21:21:11.426Z,7.15
2023-04-05T21:23:37.958Z,9.30
2023-04-05T21:26:04.636Z,8.27
2023-04-05T21:28:31.375Z,9.00
2023-04-05T21:30:57.935Z,9.05
2023-04-05T21:33:24.743Z,8.55
2023-04-05T21:35:51.300Z,8.98
2023-04-05T21:38:18.364Z,8.63
2023-04-05T21:40:45.039Z,8.50
2023-04-05T21:43:12.617Z,7.90
2023-04-05T21:45:39.142Z,8.77
2023-04-05T21:48:06.007Z,8.93
2023-04-05T21:50:32.617Z,8.38
2023-04-05T21:52:59.291Z,9.35
2023-04-05T21:55:25.806Z,8.88
2023-04-05T21:57:52.372Z,9.27
2023-04-05T22:00:19.170Z,7.95
2023-04-05T22:02:45.744Z,8.77
2023-04-05T22:05:14.269Z,8.30
2023-04-05T22:07:46.279Z,8.63
2023-04-05T22:10:12.891Z,7.97
2023-04-05T22:12:39.386Z,8.07
2023-04-05T22:15:06.374Z,8.10
2023-04-05T22:17:32.929Z,9.57
2023-04-05T22:19:59.488Z,8.80
2023-04-05T22:22:26.040Z,8.50
2023-04-05T22:24:52.605Z,8.13
2023-04-05T22:27:19.160Z,9.52
2023-04-05T22:29:45.683Z,8.07
2023-04-05T22:32:12.305Z,7.95
2023-04-05T22:34:38.961Z,7.35
2023-04-05T22:37:05.506Z,8.25
2023-04-05T22:39:32.045Z,8.93
2023-04-05T22:41:58.532Z,9.70
2023-04-05T22:44:25.059Z,7.97
2023-04-05T22:46:51.601Z,9.55
2023-04-05T22:49:18.181Z,9.07
2023-04-05T22:51:44.688Z,9.00
2023-04-05T22:54:11.231Z,8.23
2023-04-05T22:56:37.773Z,8.30
2023-04-05T22:59:04.336Z,8.35
2023-04-05T23:01:30.945Z,8.30
2023-04-05T23:03:57.471Z,8.70
2023-04-05T23:06:24.670Z,7.65
2023-04-05T23:08:51.181Z,7.60
2023-04-05T23:11:17.747Z,8.25
2023-04-05T23:13:46.710Z,8.90
2023-04-05T23:16:13.416Z,8.73
2023-04-05T23:18:40.369Z,8.32
2023-04-05T23:21:06.961Z,8.02
2023-04-05T23:23:33.467Z,8.60
2023-04-05T23:25:59.974Z,7.80
2023-04-05T23:28:26.513Z,7.10
2023-04-05T23:30:53.020Z,7.35
2023-04-05T23:33:19.523Z,7.65
2023-04-05T23:35:46.074Z,7.95
2023-04-05T23:38:12.629Z,7.68
2023-04-05T23:40:39.194Z,7.78
2023-04-05T23:43:05.731Z,7.28
2023-04-05T23:45:32.226Z,7.40
2023-04-05T23:47:58.753Z,7.90
2023-04-05T23:50:25.311Z,7.80
2023-04-05T23:52:51.899Z,7.88
2023-04-05T23:55:18.479Z,7.60
2023-04-05T23:57:45.032Z,7.30
